首页
METAR-TAF:

METAR-TAF

机场 :

朱瓦塔国际机场

塔拉卡恩, 印度尼西亚

纬度: 03-19-36N, 经度: 117-33-56E, 海拔: 6米

当前天气观测

该预报发布于24分钟前的00:00 UTC
风速5节,风向北转东北
温度 27°C
湿度 84%
气压 1012 hPa
能见度10公里或以上
少量云层高于1500英尺

METAR: WAQQ 190000Z 03005KT 9999 FEW015 27/24 Q1012

时间: 07:24 (00:24 UTC)

预报

该预报发布于7小时和24分钟前的17:00 UTC
预报有效从18日的 18点(UTC)到 19日的 06点(UTC)
风速5节,风向东转东北
能見度: 8000
少量云层高于1500英尺
成为
从 18日的 22点(UTC)到 18日的 24点(UTC)
风速5节,风向西北
能见度10公里或以上
散云层高于1500英尺

TAF: WAQQ 181700Z 1818/1906 06005KT 8000 FEW015 BECMG 1822/1824 31005KT 9999 SCT015

超过4000个机场的气象观测和天气预报(METAR&TAF报告)。

可查询的气象台以黄色和红色小点在地图上表示。

将鼠标移到小点上方,可查看气象台名称。

然后点击查看天气观测和预报。

如需切换地图:点击带黑十字的绿色按钮放大地图;点击带横线的绿色按钮缩小地图;或者点击绿色箭头查看邻近地区的地图。


METAR-TAF: